This is the latest recevied weather packets stored in our database for station/object IW0REF-9. If no packets are shown the sender has not sent any weather packets the latest 10 day(s).
| Time | Temp. | Humidity | Pressure | Rain* | Wind** | Luminosity | Snow |
|---|---|---|---|---|---|---|---|
| 1777231549 | 20° C | 22% | 1002.2 hPa | - | - | - | - |
| 1777230649 | 20° C | 21% | 1002.1 hPa | - | - | - | - |
| 1777229748 | 20.56° C | 21% | 1001.9 hPa | - | - | - | - |
| 1777228848 | 20.56° C | 20% | 1001.7 hPa | - | - | - | - |
| 1777227947 | 21.11° C | 19% | 1001.5 hPa | - | - | - | - |
| 1777227046 | 22.78° C | 18% | 1001.5 hPa | - | - | - | - |
| 1777226144 | 26.11° C | 16% | 1001.4 hPa | - | - | - | - |
| 1777225243 | 28.33° C | 15% | 1001.2 hPa | - | - | - | - |
| 1777224342 | 30° C | 14% | 1001 hPa | - | - | - | - |
| 1777223442 | 30.56° C | 14% | 1001 hPa | - | - | - | - |
| 1777220740 | 31.67° C | 12% | 1001 hPa | - | - | - | - |
| 1777219840 | 32.78° C | 12% | 1000.9 hPa | - | - | - | - |
| 1777218939 | 33.33° C | 10% | 1000.9 hPa | - | - | - | - |
| 1777218039 | 33.33° C | 11% | 1001 hPa | - | - | - | - |
| 1777217138 | 33.33° C | 11% | 1001 hPa | - | - | - | - |
| 1777216237 | 33.33° C | 11% | 1000.9 hPa | - | - | - | - |
| 1777215337 | 33.89° C | 10% | 1001 hPa | - | - | - | - |
| 1777214436 | 33.89° C | 10% | 1001.1 hPa | - | - | - | - |
| 1777213536 | 34.44° C | 11% | 1001 hPa | - | - | - | - |
| 1777212635 | 33.89° C | 11% | 1001.1 hPa | - | - | - | - |
| 1777211735 | 32.78° C | 12% | 1001.2 hPa | - | - | - | - |
| 1777210834 | 32.22° C | 12% | 1001.2 hPa | - | - | - | - |
| 1777209933 | 31.67° C | 13% | 1001.4 hPa | - | - | - | - |
| 1777209033 | 31.11° C | 13% | 1001.5 hPa | - | - | - | - |
| 1777208132 | 31.11° C | 14% | 1001.6 hPa | - | - | - | - |
* Rain since midnight (hover to see other rain measurements)
** Current wind speed in m/s (hover to see current wind gust speed)